createdAt,value
2023-02-06T00:01:47.440Z,14.02
2023-02-06T00:04:15.766Z,13.70
2023-02-06T00:06:44.083Z,11.50
2023-02-06T00:12:01.990Z,8.23
2023-02-06T00:14:30.111Z,8.45
2023-02-06T00:17:01.608Z,7.35
2023-02-06T00:19:29.364Z,6.82
2023-02-06T00:21:57.148Z,7.53
2023-02-06T00:24:25.301Z,7.47
2023-02-06T00:26:53.102Z,6.40
2023-02-06T00:29:20.823Z,5.60
2023-02-06T00:31:49.362Z,6.63
2023-02-06T00:34:18.651Z,6.38
2023-02-06T00:36:46.405Z,6.30
2023-02-06T00:39:14.735Z,6.47
2023-02-06T00:41:42.450Z,6.55
2023-02-06T00:44:10.310Z,5.88
2023-02-06T00:46:38.624Z,5.53
2023-02-06T00:49:06.380Z,6.00
2023-02-06T00:51:39.303Z,5.85
2023-02-06T00:54:07.734Z,5.93
2023-02-06T00:56:36.287Z,5.13
2023-02-06T00:59:04.727Z,4.88
2023-02-06T01:01:32.496Z,4.85
2023-02-06T01:04:00.223Z,5.40
2023-02-06T01:06:28.591Z,6.10
2023-02-06T01:08:57.709Z,5.10
2023-02-06T01:11:27.531Z,5.22
2023-02-06T01:13:56.066Z,5.20
2023-02-06T01:16:25.642Z,5.13
2023-02-06T01:18:53.442Z,5.93
2023-02-06T01:21:23.947Z,5.05
2023-02-06T01:23:53.679Z,6.10
2023-02-06T01:28:52.485Z,6.07
2023-02-06T01:31:22.745Z,5.82
2023-02-06T01:33:52.141Z,5.93
2023-02-06T01:36:20.982Z,5.93
2023-02-06T01:38:49.930Z,6.07
2023-02-06T01:41:20.016Z,7.05
2023-02-06T01:44:15.604Z,5.95
2023-02-06T01:46:46.465Z,5.88
2023-02-06T01:49:18.304Z,6.30
2023-02-06T01:51:47.706Z,6.32
2023-02-06T01:54:16.713Z,7.38
2023-02-06T01:56:49.627Z,6.60
2023-02-06T01:59:19.136Z,6.22
2023-02-06T02:01:47.311Z,6.75
2023-02-06T02:04:20.836Z,6.60
2023-02-06T02:06:58.738Z,6.70
2023-02-06T02:09:28.005Z,7.60
2023-02-06T02:11:55.809Z,6.57
2023-02-06T02:14:25.536Z,6.78
2023-02-06T02:22:52.171Z,7.55
2023-02-06T02:43:29.764Z,6.30
2023-02-06T03:00:36.918Z,5.60
2023-02-06T03:03:08.704Z,5.65
2023-02-06T03:06:03.895Z,6.55
2023-02-06T03:08:44.818Z,5.78
2023-02-06T03:14:07.486Z,5.65
2023-02-06T03:16:48.836Z,7.03
2023-02-06T03:19:22.001Z,6.32
2023-02-06T03:21:50.978Z,6.10
2023-02-06T03:24:25.160Z,6.35
2023-02-06T03:26:57.992Z,6.22
2023-02-06T03:29:30.006Z,5.22
2023-02-06T03:32:03.587Z,5.82
2023-02-06T03:34:38.634Z,5.85
2023-02-06T03:37:06.787Z,6.22
2023-02-06T03:39:35.065Z,5.85
2023-02-06T03:42:06.044Z,4.80
2023-02-06T03:44:37.509Z,6.03
2023-02-06T07:42:15.512Z,11.98
2023-02-06T07:47:47.017Z,12.48
2023-02-06T08:06:46.154Z,12.25
2023-02-06T08:32:02.117Z,12.30
2023-02-06T08:38:08.730Z,13.32
2023-02-06T08:41:17.158Z,12.00
2023-02-06T08:47:38.836Z,11.55
2023-02-06T10:01:44.109Z,11.18
2023-02-06T10:04:43.624Z,10.07
2023-02-06T10:19:46.690Z,9.82
2023-02-06T10:22:22.454Z,8.43
2023-02-06T10:25:06.256Z,9.07
2023-02-06T10:27:35.902Z,8.68
2023-02-06T10:32:46.538Z,7.82
2023-02-06T10:35:25.928Z,8.77
2023-02-06T10:38:34.336Z,9.32
2023-02-06T10:43:48.605Z,9.18
2023-02-06T10:46:36.786Z,7.20
2023-02-06T10:49:12.544Z,8.05
2023-02-06T10:51:44.744Z,7.55
2023-02-06T10:54:17.958Z,7.75
2023-02-06T10:56:48.803Z,7.70
2023-02-06T10:59:25.078Z,6.70
2023-02-06T11:01:58.159Z,7.18
2023-02-06T11:04:34.388Z,6.70
2023-02-06T11:07:09.441Z,7.05
2023-02-06T11:09:37.977Z,7.03
2023-02-06T11:12:12.956Z,7.00
2023-02-06T11:14:42.056Z,6.57
2023-02-06T11:17:11.476Z,7.22
2023-02-06T11:19:44.758Z,7.15
2023-02-06T11:22:16.198Z,6.00
2023-02-06T11:25:03.188Z,5.97
2023-02-06T11:27:33.331Z,5.43
2023-02-06T11:30:07.462Z,5.28
2023-02-06T11:32:40.650Z,5.72
2023-02-06T11:35:23.125Z,6.63
2023-02-06T11:37:54.081Z,5.50
2023-02-06T11:40:28.291Z,5.95
2023-02-06T11:43:18.558Z,5.78
2023-02-06T11:45:48.584Z,6.85
2023-02-06T11:48:37.248Z,6.18
2023-02-06T11:51:05.916Z,6.10
2023-02-06T11:53:36.003Z,5.22
2023-02-06T11:56:08.068Z,5.43
2023-02-06T11:58:36.032Z,6.97
2023-02-06T12:01:06.999Z,5.38
2023-02-06T12:03:38.534Z,11.07
2023-02-06T12:06:13.168Z,7.07
2023-02-06T12:08:47.920Z,5.28
2023-02-06T12:11:22.478Z,5.60
2023-02-06T12:13:59.315Z,5.50
2023-02-06T12:16:31.496Z,5.28
2023-02-06T12:19:04.295Z,5.47
2023-02-06T12:21:44.520Z,4.95
2023-02-06T12:24:28.076Z,5.20
2023-02-06T12:26:59.795Z,5.20
2023-02-06T12:29:37.186Z,5.38
2023-02-06T12:32:19.743Z,4.95
2023-02-06T12:34:55.535Z,5.57
2023-02-06T12:37:35.930Z,5.88
2023-02-06T12:40:08.940Z,4.88
2023-02-06T12:42:43.447Z,4.72
2023-02-06T12:45:32.696Z,10.38
2023-02-06T12:48:11.932Z,5.03
2023-02-06T12:50:46.706Z,4.63
2023-02-06T12:53:19.948Z,4.57
2023-02-06T12:56:00.506Z,4.53
2023-02-06T12:58:43.855Z,4.32
2023-02-06T13:01:34.350Z,5.80
2023-02-06T13:04:14.735Z,4.72
2023-02-06T13:06:57.365Z,4.80
2023-02-06T13:09:34.361Z,5.93
2023-02-06T13:12:18.806Z,5.05
2023-02-06T13:14:49.140Z,5.72
2023-02-06T13:17:26.127Z,5.70
2023-02-06T13:20:03.414Z,5.07
2023-02-06T13:22:48.724Z,4.70
2023-02-06T13:26:03.982Z,4.50
2023-02-06T13:29:02.555Z,6.05
2023-02-06T13:31:35.698Z,5.35
2023-02-06T13:34:19.474Z,4.70
2023-02-06T13:36:52.526Z,4.75
2023-02-06T13:39:39.429Z,5.70
2023-02-06T13:42:34.088Z,5.60
2023-02-06T13:45:06.543Z,5.60
2023-02-06T13:48:00.703Z,5.30
2023-02-06T13:50:41.232Z,5.00
2023-02-06T13:53:29.114Z,5.18
2023-02-06T13:56:10.103Z,5.40
2023-02-06T13:58:41.974Z,5.00
2023-02-06T14:01:22.851Z,5.35
2023-02-06T14:03:52.267Z,5.47
2023-02-06T14:06:45.364Z,4.75
2023-02-06T14:09:34.198Z,5.00
2023-02-06T14:12:29.140Z,4.65
2023-02-06T14:15:12.102Z,5.28
2023-02-06T14:17:57.157Z,3.72
2023-02-06T14:20:34.553Z,4.72
2023-02-06T14:23:13.329Z,4.63
2023-02-06T14:25:49.718Z,5.80
2023-02-06T14:28:27.322Z,4.65
2023-02-06T14:31:05.895Z,4.65
2023-02-06T14:33:55.190Z,4.85
2023-02-06T14:36:44.765Z,4.25
2023-02-06T14:39:40.364Z,4.43
2023-02-06T14:42:13.050Z,4.70
2023-02-06T14:44:42.871Z,4.70
2023-02-06T14:47:19.172Z,4.93
2023-02-06T14:49:50.649Z,4.63
2023-02-06T14:52:21.998Z,6.78
2023-02-06T14:54:50.139Z,8.18
2023-02-06T14:57:23.934Z,15.20
2023-02-06T14:59:54.514Z,5.45
2023-02-06T15:02:34.625Z,6.13
2023-02-06T15:05:05.873Z,6.03
2023-02-06T15:07:35.185Z,5.60
2023-02-06T15:10:09.238Z,6.45
2023-02-06T15:12:37.939Z,7.32
2023-02-06T15:15:17.599Z,6.05
2023-02-06T15:20:31.132Z,6.43
2023-02-06T15:23:16.676Z,6.18
2023-02-06T15:25:59.920Z,5.90
2023-02-06T15:28:30.514Z,6.95
2023-02-06T15:31:01.152Z,6.30
2023-02-06T15:33:33.572Z,6.90
2023-02-06T15:36:04.675Z,7.18
2023-02-06T15:38:34.529Z,6.95
2023-02-06T15:41:06.311Z,8.38
2023-02-06T15:43:35.221Z,7.07
2023-02-06T15:46:05.603Z,7.05
2023-02-06T15:48:37.427Z,7.22
2023-02-06T15:51:19.739Z,7.85
2023-02-06T15:56:41.319Z,9.02
2023-02-06T15:59:16.234Z,8.77
2023-02-06T16:01:44.791Z,8.13
2023-02-06T16:04:18.412Z,7.05
2023-02-06T16:06:48.864Z,6.35
2023-02-06T16:09:22.169Z,5.75
2023-02-06T16:11:53.270Z,5.82
2023-02-06T16:14:25.259Z,5.15
2023-02-06T16:17:02.156Z,5.60
2023-02-06T16:19:42.687Z,4.43
2023-02-06T16:22:23.393Z,4.95
2023-02-06T16:24:53.577Z,4.45
2023-02-06T16:27:24.258Z,4.70
2023-02-06T16:29:54.242Z,4.78
2023-02-06T16:35:15.257Z,4.07
2023-02-06T16:37:45.005Z,3.85
2023-02-06T16:40:12.946Z,3.92
2023-02-06T16:42:44.195Z,4.18
2023-02-06T16:45:21.180Z,4.05
2023-02-06T16:47:49.228Z,4.10
2023-02-06T16:50:17.599Z,4.38
2023-02-06T16:52:51.515Z,4.00
2023-02-06T16:55:23.434Z,4.90
2023-02-06T16:57:54.577Z,3.92
2023-02-06T17:00:25.096Z,3.88
2023-02-06T17:02:53.546Z,4.47
2023-02-06T17:05:22.686Z,4.40
2023-02-06T17:07:51.906Z,4.00
2023-02-06T17:10:23.064Z,4.53
2023-02-06T17:12:51.509Z,3.85
2023-02-06T17:15:20.144Z,3.90
2023-02-06T17:17:48.826Z,3.88
2023-02-06T17:20:25.886Z,4.10
2023-02-06T17:22:55.495Z,3.92
2023-02-06T17:25:23.400Z,3.92
2023-02-06T17:27:51.216Z,5.90
2023-02-06T17:30:21.718Z,5.85
2023-02-06T17:32:50.080Z,9.68
2023-02-06T17:35:18.240Z,6.15
2023-02-06T17:37:46.073Z,7.03
2023-02-06T17:40:19.941Z,7.20
2023-02-06T17:42:51.395Z,6.95
2023-02-06T17:45:19.484Z,9.38
2023-02-06T17:47:47.381Z,8.43
2023-02-06T17:50:17.962Z,10.77
2023-02-06T17:52:45.921Z,10.20
2023-02-06T17:55:16.007Z,9.88
2023-02-06T17:57:44.377Z,8.90
2023-02-06T18:00:15.636Z,7.70
2023-02-06T18:02:44.709Z,7.93
2023-02-06T18:05:12.681Z,6.47
2023-02-06T18:07:41.338Z,7.97
2023-02-06T18:10:11.152Z,7.32
2023-02-06T18:15:08.811Z,5.93
2023-02-06T18:17:36.659Z,5.00
2023-02-06T18:20:05.839Z,5.22
2023-02-06T18:22:40.952Z,8.88
2023-02-06T18:25:09.736Z,16.75
2023-02-06T18:27:38.062Z,24.23
2023-02-06T18:30:09.125Z,19.75
2023-02-06T18:32:38.313Z,19.25
2023-02-06T18:35:07.385Z,13.40
2023-02-06T18:37:36.428Z,12.38
2023-02-06T18:40:04.577Z,11.55
2023-02-06T18:42:50.668Z,9.77
2023-02-06T18:45:19.944Z,8.73
2023-02-06T18:47:48.383Z,8.45
2023-02-06T18:50:17.051Z,7.40
2023-02-06T18:52:44.790Z,6.35
2023-02-06T18:55:12.599Z,4.40
2023-02-06T18:57:40.889Z,4.00
2023-02-06T19:00:10.866Z,3.80
2023-02-06T19:02:40.142Z,3.88
2023-02-06T19:05:08.433Z,3.42
2023-02-06T19:07:36.369Z,3.63
2023-02-06T19:10:10.088Z,3.28
2023-02-06T19:12:39.346Z,3.00
2023-02-06T19:15:07.904Z,3.58
2023-02-06T19:17:39.092Z,3.63
2023-02-06T19:20:10.134Z,4.35
2023-02-06T19:22:39.326Z,3.22
2023-02-06T19:25:12.078Z,3.75
2023-02-06T19:27:41.229Z,3.72
2023-02-06T19:30:10.245Z,3.15
2023-02-06T19:32:38.025Z,3.80
2023-02-06T19:35:06.905Z,4.05
2023-02-06T19:37:36.041Z,3.42
2023-02-06T19:40:03.795Z,3.95
2023-02-06T19:42:32.038Z,3.50
2023-02-06T19:44:59.862Z,3.90
2023-02-06T19:47:27.610Z,3.70
2023-02-06T19:49:56.008Z,3.30
2023-02-06T19:52:24.012Z,3.63
2023-02-06T19:54:53.357Z,3.55
2023-02-06T19:57:21.604Z,4.00
2023-02-06T19:59:49.355Z,4.18
2023-02-06T20:02:17.885Z,3.53
2023-02-06T20:04:46.365Z,4.82
2023-02-06T20:07:14.468Z,3.85
2023-02-06T20:15:47.463Z,3.65
2023-02-06T20:21:56.082Z,3.85
